Time;durP1;ratioP1;P1;durP2;ratioP2;P2;SDS_P1;SDS_P2;PMS_P1;PMS_P2;Temp;Humidity;BMP_temperature;BMP_pressure;BME280_temperature;BME280_humidity;BME280_pressure;Samples;Min_cycle;Max_cycle;Signal;HPM_P1;HPM_P2
2024/02/07 00:01:31;;;;;;;4.93;1.98;;;6.70;94.90;;;;;;5066943;28;20032;-70
2024/02/07 00:03:59;;;;;;;4.93;1.48;;;6.80;94.90;;;;;;5081296;28;20033;-65
2024/02/07 00:06:25;;;;;;;10.07;2.17;;;6.80;95.20;;;;;;5081367;28;20083;-65
2024/02/07 00:08:51;;;;;;;5.70;1.80;;;6.90;95.00;;;;;;5081039;28;20012;-65
2024/02/07 00:11:17;;;;;;;2.95;1.75;;;7.00;94.90;;;;;;5080905;28;20063;-65
2024/02/07 00:13:43;;;;;;;3.00;1.40;;;7.10;94.60;;;;;;5080920;28;20029;-65
2024/02/07 00:16:09;;;;;;;7.85;1.65;;;7.40;94.60;;;;;;5080835;28;20028;-66
2024/02/07 00:18:35;;;;;;;2.55;1.50;;;7.60;94.30;;;;;;5081054;28;20020;-66
2024/02/07 00:21:01;;;;;;;2.95;1.30;;;;;;;;;;5080684;28;20055;-65
2024/02/07 00:23:27;;;;;;;6.18;1.77;;;7.30;81.90;;;;;;5081111;28;20017;-65
2024/02/07 00:25:52;;;;;;;3.22;1.25;;;7.40;94.10;;;;;;5075722;28;20029;-65
2024/02/07 00:28:19;;;;;;;5.93;1.80;;;7.50;94.40;;;;;;5101242;28;20039;-65
2024/02/07 00:30:45;;;;;;;11.00;2.00;;;7.50;94.40;;;;;;5101119;28;20035;-66
2024/02/07 00:33:10;;;;;;;7.72;1.70;;;7.60;94.40;;;;;;5100612;28;20052;-65
2024/02/07 00:35:36;;;;;;;2.70;1.60;;;7.60;94.00;;;;;;5101042;28;20096;-65
2024/02/07 00:38:02;;;;;;;6.75;2.22;;;7.60;93.90;;;;;;5100789;28;20031;-65
2024/02/07 00:40:29;;;;;;;5.15;2.10;;;7.80;93.60;;;;;;5100984;28;20024;-65
2024/02/07 00:42:54;;;;;;;4.30;1.05;;;7.90;93.60;;;;;;5091646;28;20031;-65
2024/02/07 00:45:20;;;;;;;4.75;1.40;;;7.80;93.30;;;;;;5101191;28;20019;-65
2024/02/07 00:47:47;;;;;;;2.67;1.45;;;7.90;93.00;;;;;;5100782;28;20024;-65
2024/02/07 00:50:13;;;;;;;3.72;1.67;;;7.90;93.00;;;;;;5100675;28;20031;-66
2024/02/07 00:52:38;;;;;;;5.15;1.85;;;8.00;92.70;;;;;;5100814;28;20020;-66
2024/02/07 00:55:05;;;;;;;3.35;1.55;;;8.10;92.60;;;;;;5101054;28;20020;-65
2024/02/07 00:57:30;;;;;;;4.13;1.17;;;8.00;92.40;;;;;;5096910;28;20090;-66
2024/02/07 00:59:56;;;;;;;4.90;1.85;;;7.90;92.40;;;;;;5101642;28;20020;-65
2024/02/07 01:02:21;;;;;;;3.00;1.73;;;7.90;92.30;;;;;;5104355;28;20016;-66
2024/02/07 01:04:49;;;;;;;6.50;3.15;;;7.90;92.10;;;;;;5104600;28;20104;-66
2024/02/07 01:07:15;;;;;;;6.85;2.25;;;7.80;92.20;;;;;;5104175;28;20361;-68
2024/02/07 01:09:41;;;;;;;6.85;1.42;;;8.00;92.10;;;;;;5104255;28;20099;-68
2024/02/07 01:12:07;;;;;;;5.35;2.13;;;8.00;74.70;;;;;;5103230;28;20077;-68
2024/02/07 01:14:32;;;;;;;2.42;1.13;;;8.00;74.50;;;;;;5096782;28;20432;-67
2024/02/07 01:16:58;;;;;;;3.55;1.55;;;8.10;91.90;;;;;;5084173;28;20565;-67
2024/02/07 01:19:24;;;;;;;1.38;0.85;;;8.10;91.80;;;;;;5083982;28;20020;-67
2024/02/07 01:21:50;;;;;;;5.25;2.33;;;8.10;91.60;;;;;;5083741;28;20041;-66
2024/02/07 01:24:15;;;;;;;7.40;1.13;;;8.00;91.90;;;;;;5083970;28;20100;-66
2024/02/07 01:26:41;;;;;;;5.00;1.50;;;8.00;91.60;;;;;;5083846;28;20023;-66
2024/02/07 01:29:07;;;;;;;4.05;1.45;;;8.00;91.60;;;;;;5083945;28;20013;-66
2024/02/07 01:31:32;;;;;;;4.35;2.03;;;8.10;91.50;;;;;;5083824;28;20266;-66
2024/02/07 01:33:58;;;;;;;2.15;1.30;;;8.00;91.50;;;;;;5083486;28;20232;-66
2024/02/07 01:36:24;;;;;;;8.00;2.05;;;8.10;91.60;;;;;;5083771;28;20028;-65
2024/02/07 01:38:51;;;;;;;5.93;1.73;;;8.00;91.40;;;;;;5083679;28;20020;-66
2024/02/07 01:41:19;;;;;;;5.95;1.23;;;8.10;91.40;;;;;;5083486;28;20020;-66
2024/02/07 01:43:44;;;;;;;15.43;2.35;;;8.10;91.40;;;;;;5083237;28;20025;-66
2024/02/07 01:46:12;;;;;;;2.08;1.38;;;8.10;91.50;;;;;;5083405;28;20051;-66
2024/02/07 01:48:38;;;;;;;5.03;1.80;;;8.10;91.50;;;;;;5083454;28;20016;-65
2024/02/07 01:51:04;;;;;;;3.38;1.70;;;8.30;91.50;;;;;;5083416;28;20095;-66
2024/02/07 01:53:30;;;;;;;7.78;1.60;;;8.10;91.60;;;;;;5083388;28;20021;-66
2024/02/07 01:55:57;;;;;;;3.38;1.60;;;7.90;91.60;;;;;;5083268;28;20032;-66
2024/02/07 01:58:29;;;;;;;2.50;1.42;;;7.70;91.30;;;;;;5083082;28;20080;-66
2024/02/07 02:00:56;;;;;;;5.93;1.90;;;7.80;91.80;;;;;;5083235;28;20090;-66
2024/02/07 02:03:21;;;;;;;5.38;1.67;;;7.80;91.90;;;;;;5081619;28;20025;-66
2024/02/07 02:05:47;;;;;;;6.32;1.50;;;7.70;91.80;;;;;;5103274;28;20027;-65
2024/02/07 02:08:13;;;;;;;5.40;2.05;;;7.80;91.80;;;;;;5102707;28;20203;-66
2024/02/07 02:10:40;;;;;;;6.57;1.45;;;7.80;91.80;;;;;;5103126;28;20371;-66
2024/02/07 02:13:06;;;;;;;13.38;2.85;;;7.70;91.90;;;;;;5103023;28;20208;-65
2024/02/07 02:15:33;;;;;;;2.13;1.20;;;7.60;92.00;;;;;;5103297;28;20249;-65
2024/02/07 02:17:58;;;;;;;7.75;1.75;;;8.00;91.90;;;;;;5103158;28;20027;-65
2024/02/07 02:20:25;;;;;;;11.65;2.78;;;7.70;92.10;;;;;;5093033;28;20279;-65
2024/02/07 02:23:09;;;;;;;6.25;1.60;;;7.80;92.10;;;;;;5103404;28;20028;-66
2024/02/07 02:25:53;;;;;;;3.15;1.77;;;7.80;92.20;;;;;;5103540;28;20022;-65
2024/02/07 02:28:52;;;;;;;5.70;1.73;;;7.60;91.90;;;;;;5102658;28;20367;-67
2024/02/07 02:31:18;;;;;;;9.75;1.63;;;8.10;91.90;;;;;;5103003;28;20044;-65
2024/02/07 02:33:48;;;;;;;3.35;1.38;;;7.80;91.80;;;;;;5102581;28;20040;-65
2024/02/07 02:36:15;;;;;;;4.55;1.67;;;7.80;91.70;;;;;;5103218;28;20035;-67
2024/02/07 02:38:42;;;;;;;4.00;1.02;;;7.50;91.70;;;;;;5103413;28;20067;-67
2024/02/07 02:41:08;;;;;;;7.13;1.73;;;7.60;91.50;;;;;;5102474;28;20521;-66
2024/02/07 02:43:36;;;;;;;9.30;1.80;;;7.80;91.30;;;;;;5102543;28;20012;-66
2024/02/07 02:46:07;;;;;;;5.40;1.67;;;7.90;91.30;;;;;;5102506;28;20083;-66
2024/02/07 02:48:32;;;;;;;4.57;1.73;;;7.80;91.50;;;;;;5102582;28;20024;-68
2024/02/07 02:51:00;;;;;;;4.60;1.98;;;8.00;91.30;;;;;;5102433;28;20059;-69
2024/02/07 02:53:26;;;;;;;8.95;1.73;;;7.90;91.10;;;;;;5102376;28;20061;-70
2024/02/07 02:55:52;;;;;;;7.03;1.70;;;7.80;91.10;;;;;;5092651;28;20561;-69
2024/02/07 02:58:18;;;;;;;3.05;1.42;;;7.80;91.10;;;;;;5102396;28;20051;-70
2024/02/07 03:00:50;;;;;;;4.00;1.45;;;7.90;91.20;;;;;;5102065;28;20070;-69
2024/02/07 03:03:16;;;;;;;5.20;1.50;;;7.80;91.30;;;;;;5087147;28;20334;-69
2024/02/07 03:10:37;;;;;;;7.43;1.73;;;7.60;91.40;;;;;;5081535;28;20020;-68
2024/02/07 03:13:03;;;;;;;8.07;1.85;;;7.60;91.60;;;;;;5081866;28;20028;-67
2024/02/07 03:15:29;;;;;;;7.50;1.50;;;7.60;91.60;;;;;;5081595;28;20066;-68
2024/02/07 03:17:54;;;;;;;5.63;2.22;;;7.30;91.50;;;;;;5081466;28;20020;-65
2024/02/07 03:20:20;;;;;;;5.40;1.90;;;7.50;91.50;;;;;;5080576;28;20024;-67
2024/02/07 03:22:46;;;;;;;7.97;1.85;;;7.40;91.40;;;;;;5081577;28;20048;-67
2024/02/07 03:25:16;;;;;;;6.28;1.70;;;7.30;91.70;;;;;;5081531;28;20062;-67
2024/02/07 03:27:46;;;;;;;6.15;1.73;;;7.10;91.90;;;;;;5081432;28;20070;-67
2024/02/07 03:30:21;;;;;;;5.88;2.00;;;7.00;92.10;;;;;;5081525;28;20039;-66
2024/02/07 03:32:48;;;;;;;4.47;1.52;;;6.80;92.30;;;;;;5080125;28;20063;-67
2024/02/07 03:35:14;;;;;;;7.13;2.47;;;6.70;92.70;;;;;;5081290;28;20070;-67
2024/02/07 03:37:41;;;;;;;3.35;1.60;;;6.60;93.20;;;;;;5081509;28;20016;-65
2024/02/07 03:40:14;;;;;;;5.20;1.60;;;6.50;93.60;;;;;;5081566;28;20079;-65
2024/02/07 03:42:41;;;;;;;5.35;1.77;;;6.50;93.50;;;;;;5081475;28;20076;-67
2024/02/07 03:45:07;;;;;;;7.75;2.85;;;6.40;93.60;;;;;;5081530;28;20326;-68
2024/02/07 03:47:34;;;;;;;6.85;1.92;;;6.40;93.60;;;;;;5081341;28;20216;-67
2024/02/07 03:50:04;;;;;;;6.20;2.25;;;6.30;94.00;;;;;;5081220;28;20023;-67
2024/02/07 03:52:30;;;;;;;4.20;2.00;;;6.40;94.30;;;;;;5079765;28;20197;-67
2024/02/07 03:54:56;;;;;;;5.20;2.00;;;6.30;94.20;;;;;;5081202;28;20050;-72
2024/02/07 03:57:21;;;;;;;12.00;3.35;;;6.20;94.40;;;;;;5080988;28;20029;-72
2024/02/07 03:59:48;;;;;;;7.47;2.50;;;6.20;79.40;;;;;;5081300;28;20020;-71
2024/02/07 04:02:23;;;;;;;5.03;2.03;;;6.00;95.10;;;;;;5081035;28;20362;-72
2024/02/07 04:04:51;;;;;;;8.95;1.75;;;5.90;95.00;;;;;;5081424;28;20029;-71
2024/02/07 04:07:18;;;;;;;7.22;2.03;;;5.80;87.70;;;;;;5081009;28;20020;-71
2024/02/07 04:09:45;;;;;;;4.65;2.42;;;5.80;80.50;;;;;;5081035;28;20052;-69
2024/02/07 05:17:17;;;;;;;9.50;2.35;;;5.30;99.20;;;;;;5104571;28;20005;-72
2024/02/07 05:19:43;;;;;;;9.50;3.47;;;5.40;99.40;;;;;;5104083;28;20141;-68
2024/02/07 05:22:08;;;;;;;10.02;2.50;;;5.40;99.60;;;;;;5104067;28;20027;-69
2024/02/07 05:24:35;;;;;;;9.90;2.28;;;5.30;99.80;;;;;;5104297;28;20035;-68
2024/02/07 05:27:06;;;;;;;7.20;2.78;;;5.20;99.90;;;;;;5104105;28;20032;-68
2024/02/07 05:29:32;;;;;;;5.97;2.95;;;5.40;99.90;;;;;;5104020;28;20063;-67
2024/02/07 05:31:58;;;;;;;5.82;3.15;;;;;;;;;;5102521;28;20119;-68
2024/02/07 05:34:24;;;;;;;4.38;2.70;;;5.30;99.90;;;;;;5103842;28;20027;-69
2024/02/07 05:36:50;;;;;;;3.83;2.10;;;5.40;99.70;;;;;;5103896;28;20027;-67
2024/02/07 05:39:16;;;;;;;6.78;2.72;;;5.20;99.80;;;;;;5103888;28;20580;-69
2024/02/07 05:41:43;;;;;;;7.35;2.38;;;;;;;;;;5103727;28;20273;-69
2024/02/07 05:44:09;;;;;;;5.03;2.88;;;5.40;99.60;;;;;;5102706;28;20028;-69
2024/02/07 05:46:36;;;;;;;6.45;2.60;;;5.00;99.80;;;;;;5103014;28;20051;-68
2024/02/07 05:49:02;;;;;;;15.57;3.90;;;4.70;93.70;;;;;;5102970;28;20044;-69
2024/02/07 05:51:28;;;;;;;6.72;2.70;;;4.90;99.90;;;;;;5102646;28;20355;-69
2024/02/07 05:53:53;;;;;;;16.98;5.05;;;4.70;94.30;;;;;;5102787;28;20020;-68
2024/02/07 05:56:20;;;;;;;10.45;3.40;;;4.60;91.00;;;;;;5103011;28;20323;-69
2024/02/07 05:58:51;;;;;;;7.63;3.13;;;4.50;99.90;;;;;;5103636;28;20012;-72
2024/02/07 06:01:17;;;;;;;4.90;2.47;;;4.50;91.40;;;;;;5103282;28;20346;-71
2024/02/07 06:03:50;;;;;;;9.32;3.50;;;4.50;99.90;;;;;;5102997;28;20027;-67
2024/02/07 06:06:19;;;;;;;10.38;3.67;;;4.40;99.90;;;;;;5103431;28;20031;-67
2024/02/07 06:08:49;;;;;;;;;;;4.40;91.90;;;;;;5103629;28;20016;-66
2024/02/07 06:11:15;;;;;;;7.93;3.25;;;4.30;99.90;;;;;;5103132;28;19947;-66
2024/02/07 06:13:41;;;;;;;8.02;3.10;;;4.30;99.90;;;;;;5103526;28;20012;-67
2024/02/07 06:16:07;;;;;;;5.63;3.60;;;4.40;99.90;;;;;;5103148;28;20032;-66
2024/02/07 06:18:35;;;;;;;9.48;3.53;;;4.40;96.80;;;;;;5103264;28;20024;-66
2024/02/07 06:21:01;;;;;;;11.20;3.42;;;;;;;;;;5102696;28;20331;-67
2024/02/07 06:23:27;;;;;;;7.05;4.22;;;4.10;99.90;;;;;;5102896;28;20038;-68
2024/02/07 06:25:53;;;;;;;9.20;3.30;;;4.20;99.90;;;;;;5102795;28;20040;-68
2024/02/07 06:28:19;;;;;;;9.77;3.85;;;4.00;99.90;;;;;;5102769;28;20019;-68
2024/02/07 06:30:45;;;;;;;6.13;3.55;;;;;;;;;;5102698;28;20028;-67
2024/02/07 06:33:11;;;;;;;11.35;5.20;;;;;;;;;;5102516;28;20060;-69
2024/02/07 06:35:37;;;;;;;10.48;4.18;;;;;;;;;;5102587;28;20032;-69
2024/02/07 06:38:03;;;;;;;11.98;3.92;;;4.20;99.90;;;;;;5102667;28;20028;-68
2024/02/07 06:40:29;;;;;;;8.00;3.88;;;4.10;98.80;;;;;;5102584;28;20019;-69
2024/02/07 06:42:55;;;;;;;11.45;3.97;;;4.40;99.90;;;;;;5100792;28;20032;-70
2024/02/07 06:45:20;;;;;;;7.35;4.43;;;4.40;99.90;;;;;;5102499;28;20046;-69
2024/02/07 06:47:46;;;;;;;10.32;4.57;;;4.40;99.90;;;;;;5102435;28;20020;-68
2024/02/07 06:50:12;;;;;;;17.05;7.20;;;4.60;99.90;;;;;;5101150;28;20020;-68
2024/02/07 06:52:39;;;;;;;23.88;7.63;;;4.60;99.90;;;;;;5101938;28;20046;-68
2024/02/07 06:55:05;;;;;;;17.38;8.63;;;4.70;99.90;;;;;;5101526;28;20024;-69
2024/02/07 06:57:31;;;;;;;17.52;6.93;;;4.70;99.90;;;;;;5101096;28;20050;-69
2024/02/07 06:59:56;;;;;;;13.13;6.43;;;4.80;99.90;;;;;;5102154;28;20028;-68
2024/02/07 07:02:23;;;;;;;15.88;6.25;;;;;;;;;;5102121;28;20034;-68
2024/02/07 07:04:49;;;;;;;16.85;5.75;;;4.70;94.20;;;;;;5100782;28;20205;-69
2024/02/07 07:07:15;;;;;;;11.65;6.57;;;4.70;99.90;;;;;;5102060;28;20059;-69
2024/02/07 07:09:41;;;;;;;16.55;7.55;;;4.70;99.90;;;;;;5102212;28;20016;-69
2024/02/07 07:12:07;;;;;;;12.82;5.78;;;4.80;99.90;;;;;;5102300;28;20035;-68
2024/02/07 07:14:32;;;;;;;10.75;4.55;;;4.80;99.90;;;;;;5102072;28;20091;-69
2024/02/07 07:16:58;;;;;;;10.50;4.30;;;;;;;;;;5101846;28;20032;-67
2024/02/07 07:19:24;;;;;;;8.15;4.47;;;;;;;;;;5101999;28;20055;-67
2024/02/07 07:21:50;;;;;;;7.88;4.80;;;4.90;99.90;;;;;;5101852;28;20027;-69
2024/02/07 07:24:15;;;;;;;10.77;4.82;;;5.20;99.90;;;;;;5101832;28;20206;-69
2024/02/07 07:26:41;;;;;;;8.98;4.78;;;5.00;99.90;;;;;;5101701;28;20016;-69
2024/02/07 07:29:08;;;;;;;8.95;4.97;;;5.30;99.90;;;;;;5101895;28;20012;-69
2024/02/07 07:31:35;;;;;;;8.85;4.10;;;;;;;;;;5101674;28;20036;-70
2024/02/07 07:34:01;;;;;;;9.90;3.83;;;5.40;99.90;;;;;;5101526;28;20047;-68
2024/02/07 07:36:27;;;;;;;7.47;4.25;;;6.00;99.90;;;;;;5102944;28;20023;-68
2024/02/07 07:38:54;;;;;;;15.10;5.03;;;5.70;94.00;;;;;;5102360;28;20039;-67
2024/02/07 07:41:20;;;;;;;8.98;4.72;;;5.90;99.40;;;;;;5101392;28;20137;-66
2024/02/07 07:43:45;;;;;;;8.60;4.93;;;5.90;99.90;;;;;;5101846;28;20028;-67
2024/02/07 07:46:12;;;;;;;13.45;5.95;;;6.10;99.90;;;;;;5101625;28;20328;-68
2024/02/07 07:48:37;;;;;;;10.82;5.05;;;6.10;99.90;;;;;;5102103;28;20020;-67
2024/02/07 07:51:06;;;;;;;14.07;4.80;;;6.60;99.90;;;;;;5102047;28;20201;-67
2024/02/07 07:53:32;;;;;;;15.75;5.35;;;6.50;99.90;;;;;;5100470;28;20023;-67
2024/02/07 07:55:57;;;;;;;14.52;5.88;;;6.60;99.90;;;;;;5091404;28;20024;-68
2024/02/07 07:58:23;;;;;;;13.80;6.85;;;6.60;99.90;;;;;;5065564;28;20029;-68
2024/02/07 08:00:49;;;;;;;17.10;7.88;;;6.90;99.90;;;;;;5061097;28;20347;-68
2024/02/07 08:03:14;;;;;;;23.98;11.98;;;7.00;99.90;;;;;;5061460;28;20025;-68
2024/02/07 08:05:41;;;;;;;25.17;11.35;;;7.30;99.90;;;;;;5061409;28;20070;-68
2024/02/07 08:08:07;;;;;;;25.23;11.80;;;7.60;99.90;;;;;;5065381;28;20452;-68
2024/02/07 08:10:37;;;;;;;23.13;11.13;;;7.80;99.90;;;;;;5076872;28;20020;-68
2024/02/07 08:13:03;;;;;;;;;;;7.80;93.30;;;;;;5085597;28;20374;-68
2024/02/07 08:15:29;;;;;;;24.55;12.23;;;8.10;99.90;;;;;;5085101;28;19900;-68
2024/02/07 08:17:55;;;;;;;27.17;11.48;;;8.20;99.90;;;;;;5085126;28;20051;-67
2024/02/07 08:20:22;;;;;;;22.95;11.75;;;8.20;99.90;;;;;;5085248;28;20028;-68
2024/02/07 08:22:48;;;;;;;25.20;10.13;;;8.30;99.90;;;;;;5084838;28;20031;-68
2024/02/07 08:25:14;;;;;;;22.60;12.52;;;8.10;99.90;;;;;;5084848;28;20313;-68
2024/02/07 08:27:40;;;;;;;18.60;10.93;;;;;;;;;;5085093;28;20024;-68
2024/02/07 08:30:06;;;;;;;22.27;11.45;;;8.10;91.40;;;;;;5084865;28;20047;-68
2024/02/07 08:32:32;;;;;;;26.45;14.00;;;8.20;99.60;;;;;;5084663;28;20052;-67
2024/02/07 08:34:58;;;;;;;24.35;12.38;;;8.30;99.80;;;;;;5084929;28;20039;-68
2024/02/07 08:37:26;;;;;;;25.45;12.68;;;8.40;99.40;;;;;;5084783;28;20035;-69
2024/02/07 08:39:55;;;;;;;30.98;14.27;;;8.50;99.40;;;;;;5084790;28;20133;-69
2024/02/07 08:42:21;;;;;;;18.77;9.77;;;8.60;99.40;;;;;;5084845;28;20024;-67
2024/02/07 08:44:46;;;;;;;28.48;15.63;;;8.50;96.90;;;;;;5084510;28;20047;-67
2024/02/07 08:47:12;;;;;;;29.35;14.75;;;8.60;99.00;;;;;;5084658;28;20016;-67
2024/02/07 08:49:38;;;;;;;28.40;14.55;;;8.80;98.80;;;;;;5084622;28;20016;-67
2024/02/07 08:52:04;;;;;;;25.30;12.45;;;8.90;98.10;;;;;;5084199;28;20194;-67
2024/02/07 08:54:32;;;;;;;28.63;15.25;;;9.00;97.60;;;;;;5084362;28;20032;-67
2024/02/07 08:56:58;;;;;;;36.90;16.57;;;9.10;97.50;;;;;;5084222;28;20339;-67
2024/02/07 08:59:23;;;;;;;28.33;14.57;;;9.10;97.10;;;;;;5084350;28;20021;-67
2024/02/07 09:01:49;;;;;;;26.48;11.52;;;9.30;96.80;;;;;;5084106;28;20336;-67
2024/02/07 09:04:14;;;;;;;25.90;14.85;;;9.20;96.50;;;;;;5084294;28;20080;-67
2024/02/07 09:06:40;;;;;;;32.15;15.52;;;9.20;96.10;;;;;;5084105;28;20194;-66
2024/02/07 09:09:06;;;;;;;31.95;15.30;;;9.30;96.20;;;;;;5084097;28;20025;-67
2024/02/07 09:11:31;;;;;;;27.65;14.45;;;9.20;96.00;;;;;;5084121;28;20332;-67
2024/02/07 09:13:57;;;;;;;26.02;15.95;;;9.30;96.10;;;;;;5084085;28;20070;-67
2024/02/07 09:16:23;;;;;;;27.45;15.98;;;9.70;96.10;;;;;;5083902;28;20313;-67
2024/02/07 09:18:48;;;;;;;32.20;16.05;;;9.70;95.80;;;;;;5082777;28;20024;-67
2024/02/07 09:21:17;;;;;;;31.75;16.15;;;9.50;95.50;;;;;;5083734;28;20024;-67
2024/02/07 09:23:45;;;;;;;28.65;16.42;;;9.60;95.20;;;;;;5084156;28;20209;-67
2024/02/07 09:26:11;;;;;;;30.08;15.18;;;9.70;94.90;;;;;;5083924;28;20032;-67
2024/02/07 09:28:36;;;;;;;26.73;15.10;;;9.60;94.60;;;;;;5084008;28;20340;-66
2024/02/07 09:31:02;;;;;;;27.50;15.13;;;9.70;86.30;;;;;;5083640;28;20287;-67
2024/02/07 09:33:28;;;;;;;26.00;15.48;;;10.00;90.70;;;;;;5083455;28;20112;-67
2024/02/07 09:35:57;;;;;;;24.42;14.02;;;10.00;94.30;;;;;;5083559;28;20028;-66
2024/02/07 09:38:26;;;;;;;;;;;10.00;80.50;;;;;;5083986;28;20021;-67
2024/02/07 09:40:57;;;;;;;26.20;15.23;;;9.90;93.70;;;;;;5084055;28;19924;-67
2024/02/07 09:43:23;;;;;;;25.65;15.27;;;10.10;93.50;;;;;;5083426;28;20051;-64
2024/02/07 09:45:59;;;;;;;29.75;15.68;;;10.30;93.20;;;;;;5083606;28;20028;-66
2024/02/07 09:48:26;;;;;;;22.15;13.85;;;10.40;93.00;;;;;;5078319;28;20131;-66
2024/02/07 09:50:54;;;;;;;28.95;14.45;;;10.70;92.80;;;;;;5073525;28;20032;-66
2024/02/07 09:53:23;;;;;;;25.40;13.55;;;11.00;92.30;;;;;;5083470;28;20269;-68
2024/02/07 09:55:50;;;;;;;20.13;13.20;;;10.80;91.70;;;;;;5083448;28;20046;-66
2024/02/07 09:58:16;;;;;;;22.80;12.57;;;10.80;91.10;;;;;;5083292;28;20033;-66
2024/02/07 10:00:44;;;;;;;18.92;9.20;;;11.00;90.90;;;;;;5083426;28;20035;-68
2024/02/07 10:03:13;;;;;;;21.35;12.35;;;11.30;90.30;;;;;;5083162;28;20079;-66
2024/02/07 10:05:45;;;;;;;21.55;12.40;;;11.10;73.30;;;;;;5083204;28;20024;-66
2024/02/07 10:08:11;;;;;;;20.13;11.05;;;9.40;87.50;;;;;;5083431;28;20031;-66
2024/02/07 10:10:37;;;;;;;24.33;14.20;;;11.50;88.30;;;;;;5082787;28;20043;-66
2024/02/07 10:13:04;;;;;;;19.85;11.93;;;11.40;87.90;;;;;;5083249;28;20066;-67
2024/02/07 10:15:30;;;;;;;21.48;11.02;;;11.80;88.00;;;;;;5081772;28;20020;-66
2024/02/07 10:17:56;;;;;;;21.02;12.23;;;11.60;70.70;;;;;;5082907;28;20047;-67
2024/02/07 10:20:23;;;;;;;16.55;9.63;;;11.70;70.00;;;;;;5082989;28;20017;-66
2024/02/07 10:22:49;;;;;;;20.63;12.13;;;11.90;71.10;;;;;;5082956;28;20054;-66
2024/02/07 10:25:16;;;;;;;24.27;13.75;;;11.90;68.50;;;;;;5083079;28;20029;-67
2024/02/07 10:27:43;;;;;;;20.90;12.52;;;12.00;68.00;;;;;;5082704;28;20390;-66
2024/02/07 10:30:09;;;;;;;19.13;11.10;;;12.20;85.70;;;;;;5082379;28;20032;-67
2024/02/07 10:32:36;;;;;;;18.92;12.90;;;12.40;85.30;;;;;;5082434;28;20450;-67
2024/02/07 10:35:02;;;;;;;26.30;13.93;;;12.30;84.80;;;;;;5082839;28;20043;-67
2024/02/07 10:37:28;;;;;;;27.92;13.48;;;12.50;84.80;;;;;;5082617;28;20020;-67
2024/02/07 10:40:01;;;;;;;26.20;14.95;;;12.30;84.60;;;;;;5082596;28;20286;-66
2024/02/07 10:42:27;;;;;;;23.05;13.63;;;12.30;84.40;;;;;;5081069;28;20343;-67
2024/02/07 10:45:07;;;;;;;24.33;14.02;;;12.40;74.10;;;;;;5082400;28;20020;-66
2024/02/07 10:47:33;;;;;;;23.90;13.23;;;12.70;84.60;;;;;;5082139;28;20020;-67
2024/02/07 10:50:00;;;;;;;27.52;14.82;;;12.70;84.40;;;;;;5082314;28;20070;-67
2024/02/07 10:52:26;;;;;;;28.48;15.65;;;12.90;84.30;;;;;;5082008;28;20036;-67
2024/02/07 10:54:53;;;;;;;23.10;14.43;;;13.00;84.20;;;;;;5081967;28;20016;-67
2024/02/07 10:57:27;;;;;;;21.60;13.43;;;13.10;83.20;;;;;;5082025;28;20035;-70
2024/02/07 11:00:01;;;;;;;27.77;15.43;;;13.30;83.00;;;;;;5082299;28;20526;-66
2024/02/07 11:02:28;;;;;;;22.65;14.10;;;13.00;82.50;;;;;;5082067;28;20036;-66
2024/02/07 11:04:53;;;;;;;24.17;13.45;;;13.10;66.00;;;;;;5082079;28;20549;-67
2024/02/07 11:07:20;;;;;;;23.80;13.25;;;13.50;81.60;;;;;;5074577;28;20028;-67
2024/02/07 11:09:46;;;;;;;20.27;12.50;;;13.50;65.30;;;;;;5081670;28;20229;-67
2024/02/07 11:12:15;;;;;;;21.42;12.63;;;14.10;79.70;;;;;;5062828;28;20032;-67
2024/02/07 11:14:42;;;;;;;;;;;13.90;63.60;;;;;;5062021;28;20017;-67
2024/02/07 11:17:09;;;;;;;16.40;9.02;;;14.00;78.10;;;;;;5061536;28;19908;-67
2024/02/07 11:19:35;;;;;;;24.55;10.52;;;14.00;61.90;;;;;;5061558;28;20103;-67
2024/02/07 11:22:03;;;;;;;19.83;11.32;;;14.00;59.70;;;;;;5061371;28;20331;-67
2024/02/07 11:24:30;;;;;;;20.13;11.35;;;13.80;76.20;;;;;;5061377;28;20039;-67
2024/02/07 11:26:56;;;;;;;23.58;11.73;;;13.80;76.90;;;;;;5061389;28;20272;-66
2024/02/07 11:29:23;;;;;;;20.27;11.77;;;13.60;77.20;;;;;;5061624;28;20028;-67
2024/02/07 11:31:53;;;;;;;17.42;10.63;;;13.80;60.80;;;;;;5061493;28;20060;-67
2024/02/07 11:34:19;;;;;;;18.38;10.55;;;13.70;77.50;;;;;;5061101;28;20116;-67
2024/02/07 11:36:55;;;;;;;17.25;10.88;;;13.60;77.70;;;;;;5075788;28;20028;-69
2024/02/07 11:39:21;;;;;;;18.27;12.23;;;13.70;78.00;;;;;;5063388;28;20032;-67
2024/02/07 11:41:50;;;;;;;20.55;12.57;;;13.40;78.00;;;;;;5063184;28;20071;-68
2024/02/07 11:44:16;;;;;;;24.45;12.23;;;13.30;79.00;;;;;;5061369;28;20088;-67
2024/02/07 11:46:50;;;;;;;29.13;12.57;;;13.60;79.30;;;;;;5061154;28;20033;-67
2024/02/07 11:49:18;;;;;;;19.90;12.05;;;13.40;81.00;;;;;;5060775;28;20029;-68
2024/02/07 11:51:44;;;;;;;23.27;13.75;;;;;;;;;;5060938;28;20028;-68
2024/02/07 11:54:10;;;;;;;22.35;13.65;;;13.40;65.50;;;;;;5059792;28;20337;-67
2024/02/07 11:56:36;;;;;;;24.75;14.15;;;13.00;80.30;;;;;;5061147;28;20103;-67
2024/02/07 11:59:03;;;;;;;28.15;14.30;;;13.40;79.50;;;;;;5061306;28;20048;-68
2024/02/07 12:01:30;;;;;;;25.65;14.00;;;13.40;79.90;;;;;;5061509;28;20049;-67
2024/02/07 12:03:57;;;;;;;24.77;13.27;;;13.50;80.00;;;;;;5061472;28;20035;-67
2024/02/07 12:06:24;;;;;;;27.27;13.25;;;15.60;80.60;;;;;;5061180;28;20104;-68
2024/02/07 12:08:49;;;;;;;23.50;13.02;;;13.40;79.80;;;;;;5061107;28;20131;-67
2024/02/07 12:11:15;;;;;;;22.08;13.55;;;13.40;79.80;;;;;;5060815;28;20284;-67
2024/02/07 12:13:41;;;;;;;26.15;14.10;;;13.50;79.90;;;;;;5060881;28;20040;-67
2024/02/07 12:16:10;;;;;;;20.42;13.63;;;13.50;63.40;;;;;;5060966;28;20025;-67
2024/02/07 12:18:36;;;;;;;24.95;14.45;;;13.70;79.00;;;;;;5061067;28;20104;-67
2024/02/07 12:21:03;;;;;;;27.40;14.15;;;14.20;79.20;;;;;;5060817;28;20033;-67
2024/02/07 12:23:30;;;;;;;26.10;14.77;;;14.10;78.10;;;;;;5060860;28;20317;-69
2024/02/07 12:26:00;;;;;;;24.05;13.38;;;14.30;77.90;;;;;;5061147;28;20060;-67
2024/02/07 12:28:26;;;;;;;22.77;13.85;;;14.20;61.70;;;;;;5061172;28;20086;-67
2024/02/07 12:30:55;;;;;;;27.17;15.52;;;14.30;61.40;;;;;;5060679;28;20029;-67
2024/02/07 12:33:22;;;;;;;25.25;13.52;;;14.40;61.00;;;;;;5060681;28;20049;-68
2024/02/07 12:35:53;;;;;;;21.02;12.65;;;14.30;75.90;;;;;;5060831;28;20028;-67
2024/02/07 12:38:19;;;;;;;22.83;13.15;;;15.00;75.30;;;;;;5060770;28;20020;-70
2024/02/07 12:40:50;;;;;;;22.40;10.55;;;14.80;74.00;;;;;;5060874;28;20248;-68
2024/02/07 12:43:22;;;;;;;20.55;11.50;;;15.00;72.60;;;;;;5061046;28;20032;-68
2024/02/07 12:45:54;;;;;;;19.83;11.98;;;14.90;58.20;;;;;;5060724;28;20313;-68
2024/02/07 12:48:22;;;;;;;19.55;11.27;;;15.00;72.40;;;;;;5060561;28;20313;-68
2024/02/07 12:50:49;;;;;;;19.77;11.40;;;15.10;58.00;;;;;;5060723;28;20035;-68
2024/02/07 12:53:14;;;;;;;19.08;10.77;;;15.20;57.50;;;;;;5063409;28;20112;-68
2024/02/07 12:55:40;;;;;;;19.73;11.23;;;15.40;57.10;;;;;;5064614;28;20300;-69
2024/02/07 12:58:06;;;;;;;15.48;10.05;;;15.90;57.20;;;;;;5064769;28;20021;-69
2024/02/07 13:00:32;;;;;;;15.57;9.85;;;17.00;56.30;;;;;;5064950;28;20024;-69
2024/02/07 13:02:57;;;;;;;14.95;9.55;;;18.60;53.00;;;;;;5068764;28;20041;-70
2024/02/07 13:05:23;;;;;;;12.88;9.70;;;20.10;49.30;;;;;;5069262;28;20044;-69
2024/02/07 13:07:50;;;;;;;14.90;9.52;;;21.70;45.50;;;;;;5067651;28;20032;-71
2024/02/07 13:10:16;;;;;;;14.45;9.40;;;23.00;42.70;;;;;;5067429;28;20080;-70
2024/02/07 13:12:42;;;;;;;12.13;9.25;;;23.60;40.00;;;;;;5066576;28;20037;-69
2024/02/07 13:15:08;;;;;;;17.23;10.05;;;23.20;40.10;;;;;;5066849;28;20040;-69
2024/02/07 13:17:36;;;;;;;15.23;10.45;;;24.30;38.10;;;;;;5065736;28;20044;-69
2024/02/07 13:20:03;;;;;;;12.80;10.05;;;26.50;36.10;;;;;;5065702;28;20013;-70
2024/02/07 13:22:29;;;;;;;15.85;10.05;;;27.00;33.90;;;;;;5064272;28;20037;-70
2024/02/07 13:24:55;;;;;;;14.75;10.02;;;25.10;36.00;;;;;;5063971;28;20025;-69
2024/02/07 13:27:21;;;;;;;14.60;10.48;;;23.60;37.50;;;;;;5064029;28;20025;-70
2024/02/07 13:29:47;;;;;;;16.83;10.52;;;27.10;36.30;;;;;;5063914;28;20080;-69
2024/02/07 13:32:15;;;;;;;16.45;9.68;;;28.40;33.70;;;;;;5063485;28;20084;-69
2024/02/07 13:34:41;;;;;;;13.43;10.20;;;28.50;33.10;;;;;;5063638;28;20023;-69
2024/02/07 13:37:07;;;;;;;15.30;10.63;;;30.70;32.10;;;;;;5063776;28;20029;-70
2024/02/07 13:39:33;;;;;;;13.45;8.93;;;32.00;30.60;;;;;;5063593;28;20039;-70
2024/02/07 13:41:58;;;;;;;15.65;9.00;;;32.70;29.20;;;;;;5079139;28;20056;-68
2024/02/07 13:44:24;;;;;;;12.55;8.38;;;32.90;29.40;;;;;;5083430;28;20066;-69
2024/02/07 13:46:50;;;;;;;11.38;6.68;;;34.00;28.90;;;;;;5083285;28;20084;-70
2024/02/07 13:49:16;;;;;;;11.70;7.88;;;35.10;27.80;;;;;;5083661;28;20078;-70
2024/02/07 13:51:42;;;;;;;9.15;6.60;;;34.00;27.70;;;;;;5083312;28;20366;-69
2024/02/07 13:54:07;;;;;;;15.35;7.22;;;31.40;28.50;;;;;;5081957;28;20024;-69
2024/02/07 13:56:33;;;;;;;11.93;7.15;;;27.30;30.00;;;;;;5083226;28;20028;-69